Currently 61°F in San Jacinto, California, USA
61°F
61°F / 54°F
calm
0.00"
Monday, May 17, 2021 12:07 PM PDT

San Jacinto, California Weather Summary
Last 36 Hours

Temperature Winds Hourly Humidity Dewpoint
Time Report Norm Report Norm Max Gusts Precip. Rpt. Norm Rpt. Norm Pressure
1Mon 12:07 PM  61.0°F  73°F  calm  3 mph  2 mph  0.00"  71%  43%  51°F  48°F  30.05"
Mon 12:00 PM  60.8°F  73°F  calm  3 mph  1 mph  0.00"  70%  44%  51°F  48°F  30.05"
2Mon 11:46 AM  61.3°F  72°F  calm  2 mph  none  ----  70%  45%  51°F  49°F  30.05"
Mon 11:00 AM  59.4°F  69°F  calm  2 mph  none  0.00"  74%  50%  51°F  49°F  30.05"
Mon 10:00 AM  56.8°F  66°F  calm  2 mph  none  0.00"  83%  57%  51°F  50°F  30.05"
Mon 09:00 AM  55.0°F  62°F  calm  1 mph  none  0.00"  88%  66%  51°F  50°F  30.06"
Mon 08:00 AM  54.3°F  59°F  calm  1 mph  none  0.00"  89%  73%  51°F  50°F  30.06"
Mon 07:00 AM  54.1°F  56°F  calm  1 mph  2 mph  0.00"  90%  78%  51°F  49°F  30.04"
Mon 06:00 AM  53.8°F  55°F  1 mph SW  1 mph  3 mph  0.00"  89%  80%  51°F  48°F  30.03"
3Mon 05:46 AM  53.8°F  55°F  1 mph SW  1 mph  3 mph  ----  89%  80%  51°F  48°F  30.03"
Mon 05:00 AM  54.0°F  55°F  3 mph SW  1 mph  6 mph  0.00"  88%  79%  50°F  49°F  30.03"
Mon 04:00 AM  54.1°F  56°F  2 mph SW  1 mph  6 mph  0.00"  87%  79%  50°F  49°F  30.02"
Mon 03:00 AM  54.1°F  57°F  1 mph SW  1 mph  5 mph  0.00"  86%  78%  50°F  50°F  30.01"
Mon 02:00 AM  54.1°F  57°F  1 mph SW  1 mph  3 mph  0.00"  86%  76%  50°F  50°F  30.02"
Mon 01:00 AM  54.1°F  58°F  calm  1 mph  1 mph  0.00"  88%  75%  50°F  50°F  30.02"
Mon 12:04 AM  55.0°F  60°F  calm  1 mph  2 mph  0.00"  83%  72%  50°F  50°F  30.02"
Sun 11:00 PM  55.2°F  61°F  calm  1 mph  9 mph  0.00"  80%  71%  49°F  51°F  30.02"
Sun 10:00 PM  55.8°F  62°F  1 mph S  2 mph  9 mph  0.00"  79%  67%  49°F  51°F  30.01"
Sun 09:00 PM  56.5°F  64°F  calm  2 mph  9 mph  0.00"  78%  63%  49°F  51°F  30.00"
Sun 08:00 PM  57.2°F  66°F  1 mph S  3 mph  7 mph  0.00"  76%  58%  49°F  50°F  29.98"
Sun 07:00 PM  58.1°F  71°F  1 mph SW  4 mph  9 mph  0.00"  73%  50%  49°F  50°F  29.98"
Sun 06:00 PM  58.6°F  74°F  1 mph S  5 mph  10 mph  0.00"  72%  44%  49°F  50°F  29.97"
Sun 05:00 PM  59.9°F  76°F  calm  6 mph  11 mph  0.00"  70%  39%  50°F  49°F  29.96"
Sun 04:00 PM  61.3°F  78°F  2 mph SW  5 mph  11 mph  0.00"  67%  37%  50°F  48°F  29.97"
Sun 03:00 PM  62.8°F  78°F  3 mph SW  4 mph  11 mph  0.00"  65%  35%  50°F  48°F  29.97"
Sun 02:00 PM  61.9°F  77°F  1 mph SW  4 mph  13 mph  0.00"  65%  36%  50°F  47°F  29.98"
Sun 01:00 PM  62.2°F  76°F  2 mph S  3 mph  11 mph  0.00"  63%  39%  49°F  48°F  29.98"
Sun 12:00 PM  61.5°F  73°F  1 mph SW  3 mph  7 mph  0.00"  61%  43%  47°F  49°F  29.98"
Sun 11:00 AM  60.1°F  70°F  1 mph SW  2 mph  7 mph  0.00"  65%  51%  48°F  50°F  29.98"
Sun 10:00 AM  57.7°F  66°F  1 mph SW  2 mph  5 mph  0.00"  71%  58%  48°F  50°F  29.98"
Sun 09:00 AM  56.1°F  62°F  calm  1 mph  3 mph  0.00"  76%  67%  48°F  51°F  29.98"
Sun 08:00 AM  54.5°F  59°F  1 mph SW  1 mph  3 mph  0.00"  79%  75%  48°F  50°F  29.98"
Sun 07:00 AM  53.8°F  56°F  1 mph SW  1 mph  6 mph  0.00"  81%  80%  48°F  49°F  29.96"
Sun 06:00 AM  53.6°F  55°F  1 mph S  1 mph  7 mph  0.00"  81%  81%  48°F  49°F  29.95"
Sun 05:00 AM  53.8°F  55°F  2 mph SW  1 mph  5 mph  0.00"  82%  80%  48°F  49°F  29.95"
Sun 04:00 AM  54.1°F  56°F  2 mph SW  1 mph  5 mph  0.00"  84%  80%  49°F  50°F  29.95"
Sun 03:00 AM  55.2°F  57°F  calm  1 mph  none  0.00"  82%  79%  50°F  50°F  29.95"
Sun 02:00 AM  55.9°F  58°F  calm  1 mph  6 mph  0.00"  80%  77%  50°F  50°F  29.95"
Sun 01:00 AM  56.5°F  59°F  1 mph SW  1 mph  6 mph  0.00"  78%  75%  49°F  50°F  29.95"

  1. Current weather data. No green row appears if the current weather data is also the high or low for the current day.
  2. High temperature for the current day.
  3. Low temperature for the current day.

The San Jacinto, California weather pages are a service of WeatherCurrents. San Jacinto is located in the heart of the San Jacinto Valley, near Hemet, the Soboba Casino, and at the foot of the San Jacinto Mountains.
Copyright ©2021  WeatherCurrents. All rights reserved. - Submit questions and comments - Privacy Policy

This page automatically refreshes every 10 minutes.